Time;durP1;ratioP1;P1;durP2;ratioP2;P2;SDS_P1;SDS_P2;PMS_P1;PMS_P2;Temp;Humidity;BMP_temperature;BMP_pressure;BME280_temperature;BME280_humidity;BME280_pressure;Samples;Min_cycle;Max_cycle;Signal;HPM_P1;HPM_P2
2021/09/07 00:01:36;;;;;;;6.60;4.80;;;14.20;87.60;;;;;;5003549;28;20661;-67
2021/09/07 00:04:03;;;;;;;6.10;4.53;;;14.20;87.50;;;;;;4995691;28;20204;-67
2021/09/07 00:06:30;;;;;;;9.83;4.97;;;14.20;87.40;;;;;;5011255;28;20758;-67
2021/09/07 00:08:56;;;;;;;9.03;5.20;;;14.20;87.30;;;;;;4999649;28;20235;-67
2021/09/07 00:11:23;;;;;;;8.60;5.30;;;14.20;87.50;;;;;;5003388;28;20226;-66
2021/09/07 00:13:51;;;;;;;8.17;5.33;;;14.20;87.90;;;;;;5005088;28;20227;-66
2021/09/07 00:16:18;;;;;;;9.03;5.63;;;14.10;87.90;;;;;;4992247;28;20545;-67
2021/09/07 00:18:45;;;;;;;7.00;5.53;;;14.10;88.00;;;;;;4992471;28;20685;-67
2021/09/07 00:21:12;;;;;;;8.73;5.70;;;14.10;88.40;;;;;;5005725;28;20208;-66
2021/09/07 00:23:39;;;;;;;8.13;5.50;;;14.10;88.90;;;;;;4996780;28;20444;-66
2021/09/07 00:26:05;;;;;;;8.73;6.47;;;14.00;89.10;;;;;;4995251;28;20237;-67
2021/09/07 00:28:32;;;;;;;13.27;6.77;;;14.00;89.20;;;;;;4998489;28;20258;-66
2021/09/07 00:31:00;;;;;;;12.57;7.87;;;14.10;89.70;;;;;;5005563;28;20210;-67
2021/09/07 00:33:27;;;;;;;12.43;7.70;;;14.00;90.00;;;;;;5006635;28;20241;-67
2021/09/07 00:35:54;;;;;;;10.27;7.30;;;14.00;90.10;;;;;;5011067;28;20254;-67
2021/09/07 00:38:20;;;;;;;10.27;6.80;;;14.00;90.20;;;;;;5005418;28;20204;-67
2021/09/07 00:40:47;;;;;;;10.47;7.30;;;14.00;90.30;;;;;;5003720;28;20215;-67
2021/09/07 00:43:14;;;;;;;11.33;7.47;;;14.00;90.30;;;;;;5001676;28;20208;-66
2021/09/07 00:45:41;;;;;;;11.00;7.50;;;13.90;90.40;;;;;;5001324;28;20575;-67
2021/09/07 00:48:09;;;;;;;11.23;7.70;;;13.90;90.40;;;;;;4993474;28;20228;-66
2021/09/07 00:50:36;;;;;;;11.50;7.37;;;13.90;90.60;;;;;;5007782;28;20210;-68
2021/09/07 00:53:03;;;;;;;10.47;7.33;;;13.90;90.60;;;;;;5009577;28;20211;-66
2021/09/07 00:55:30;;;;;;;9.67;6.90;;;13.90;90.70;;;;;;4993942;28;20208;-65
2021/09/07 00:57:59;;;;;;;13.97;7.43;;;13.80;90.80;;;;;;4998200;28;20214;-66
2021/09/07 01:00:26;;;;;;;12.23;6.90;;;13.80;90.90;;;;;;5004868;28;20234;-66
2021/09/07 01:02:53;;;;;;;10.87;7.47;;;13.80;91.10;;;;;;5015576;28;20222;-67
2021/09/07 01:05:21;;;;;;;10.87;7.43;;;13.70;91.20;;;;;;5006275;28;20634;-67
2021/09/07 01:07:48;;;;;;;15.97;7.50;;;13.70;91.40;;;;;;4999961;28;20231;-66
2021/09/07 01:10:15;;;;;;;10.97;7.13;;;13.60;91.50;;;;;;5010418;28;20211;-66
2021/09/07 01:12:42;;;;;;;14.17;7.77;;;13.60;91.60;;;;;;5004417;28;20214;-67
2021/09/07 01:15:10;;;;;;;10.67;7.53;;;13.60;91.80;;;;;;5004714;28;20207;-66
2021/09/07 01:17:37;;;;;;;10.50;7.43;;;13.50;91.90;;;;;;4997788;28;20667;-66
2021/09/07 01:20:05;;;;;;;10.90;7.47;;;13.50;92.10;;;;;;5012108;28;20211;-67
2021/09/07 01:22:33;;;;;;;10.30;7.40;;;13.50;92.30;;;;;;5007906;28;20560;-65
2021/09/07 01:25:01;;;;;;;13.10;7.17;;;13.50;92.30;;;;;;5000155;28;20219;-66
2021/09/07 01:27:28;;;;;;;11.60;7.67;;;13.50;92.50;;;;;;4995685;28;20224;-66
2021/09/07 01:29:55;;;;;;;12.13;7.57;;;13.40;92.60;;;;;;5001723;28;20203;-65
2021/09/07 01:32:22;;;;;;;10.73;7.73;;;13.40;92.80;;;;;;5010915;28;20240;-67
2021/09/07 01:34:49;;;;;;;17.43;7.73;;;13.30;92.90;;;;;;5002405;28;20207;-67
2021/09/07 01:37:16;;;;;;;12.87;7.70;;;13.30;93.10;;;;;;4999767;28;20219;-66
2021/09/07 01:39:43;;;;;;;12.90;7.97;;;13.30;93.30;;;;;;5010645;28;20212;-65
2021/09/07 01:42:11;;;;;;;13.77;7.30;;;13.20;93.40;;;;;;5007935;28;20204;-67
2021/09/07 01:44:41;;;;;;;11.70;8.00;;;13.20;93.50;;;;;;5007539;28;20207;-67
2021/09/07 01:47:09;;;;;;;13.10;7.20;;;13.20;93.60;;;;;;5013522;28;20230;-66
2021/09/07 01:49:36;;;;;;;12.80;7.53;;;13.20;93.60;;;;;;5011101;28;20216;-67
2021/09/07 01:52:10;;;;;;;11.20;8.03;;;13.10;93.50;;;;;;5007509;28;20651;-66
2021/09/07 01:54:41;;;;;;;11.47;8.10;;;13.10;93.80;;;;;;5004265;28;20266;-68
2021/09/07 01:57:07;;;;;;;10.67;7.97;;;13.10;93.90;;;;;;4997639;28;20266;-66
2021/09/07 01:59:35;;;;;;;10.77;7.33;;;13.10;94.00;;;;;;5011863;28;20631;-66
2021/09/07 02:02:02;;;;;;;11.77;7.40;;;13.10;94.10;;;;;;5005685;28;20219;-66
2021/09/07 02:04:29;;;;;;;11.80;7.33;;;13.10;94.20;;;;;;4996195;28;20219;-66
2021/09/07 02:06:56;;;;;;;9.77;7.43;;;13.10;94.40;;;;;;5012297;28;20574;-66
2021/09/07 02:09:23;;;;;;;10.23;7.47;;;13.10;94.40;;;;;;5005165;28;20223;-66
2021/09/07 02:11:50;;;;;;;13.13;7.00;;;13.10;94.40;;;;;;4999677;28;20614;-66
2021/09/07 02:14:17;;;;;;;11.47;7.40;;;13.10;94.50;;;;;;5001740;28;20203;-67
2021/09/07 02:16:45;;;;;;;12.17;7.63;;;13.10;94.50;;;;;;5011896;28;20214;-67
2021/09/07 02:19:12;;;;;;;11.00;7.87;;;13.10;94.50;;;;;;5010563;28;20207;-67
2021/09/07 02:21:38;;;;;;;12.20;7.77;;;13.10;94.50;;;;;;5008624;28;20219;-67
2021/09/07 02:24:05;;;;;;;10.60;7.57;;;13.10;94.60;;;;;;5012577;28;20203;-66
2021/09/07 02:26:32;;;;;;;13.03;8.30;;;13.10;94.60;;;;;;5012207;28;20212;-66
2021/09/07 02:28:59;;;;;;;13.13;7.83;;;13.00;94.60;;;;;;5011118;28;20233;-66
2021/09/07 02:31:26;;;;;;;13.93;7.40;;;13.10;94.70;;;;;;5012727;28;20222;-67
2021/09/07 02:33:54;;;;;;;11.20;7.10;;;13.00;94.70;;;;;;5012540;28;20203;-66
2021/09/07 02:36:23;;;;;;;14.27;7.17;;;13.10;94.80;;;;;;4998048;28;20724;-66
2021/09/07 02:38:50;;;;;;;9.70;6.50;;;13.00;94.70;;;;;;5012064;28;20214;-66
2021/09/07 02:41:17;;;;;;;10.83;6.90;;;13.00;94.80;;;;;;5012673;28;20683;-65
2021/09/07 02:43:44;;;;;;;13.00;7.13;;;13.10;94.70;;;;;;5012879;28;20215;-65
2021/09/07 02:46:11;;;;;;;9.37;6.60;;;13.10;94.70;;;;;;5013378;28;20207;-66
2021/09/07 02:48:38;;;;;;;12.63;7.40;;;13.10;94.60;;;;;;5012269;28;20234;-65
2021/09/07 02:51:06;;;;;;;10.10;7.20;;;13.10;94.60;;;;;;5008869;28;20644;-66
2021/09/07 02:53:33;;;;;;;10.63;7.17;;;13.10;94.60;;;;;;5001995;28;20219;-66
2021/09/07 02:56:00;;;;;;;10.63;6.57;;;13.00;94.60;;;;;;5000020;28;20214;-66
2021/09/07 02:58:26;;;;;;;12.37;6.97;;;13.10;94.60;;;;;;5002268;28;20207;-66
2021/09/07 03:00:53;;;;;;;11.93;7.20;;;13.10;94.60;;;;;;5000393;28;20215;-67
2021/09/07 03:03:22;;;;;;;10.73;6.73;;;13.00;94.60;;;;;;4997447;28;20703;-67
2021/09/07 03:05:49;;;;;;;13.77;7.07;;;13.00;94.60;;;;;;5004453;28;20243;-67
2021/09/07 03:08:17;;;;;;;9.17;6.87;;;13.00;94.60;;;;;;5014130;28;20231;-68
2021/09/07 03:10:43;;;;;;;9.03;6.60;;;13.00;94.70;;;;;;5012392;28;20204;-67
2021/09/07 03:13:10;;;;;;;11.47;7.17;;;13.00;94.70;;;;;;5012406;28;20200;-68
2021/09/07 03:15:39;;;;;;;10.07;6.70;;;13.00;94.70;;;;;;5011728;28;20223;-67
2021/09/07 03:18:06;;;;;;;8.93;6.70;;;13.10;94.70;;;;;;5011867;28;20199;-66
2021/09/07 03:20:34;;;;;;;12.00;7.57;;;13.10;94.70;;;;;;5012695;28;20211;-66
2021/09/07 03:23:01;;;;;;;12.83;6.77;;;13.00;94.60;;;;;;5011696;28;20211;-66
2021/09/07 03:25:29;;;;;;;10.30;6.57;;;13.00;94.70;;;;;;5005269;28;20231;-66
2021/09/07 03:27:56;;;;;;;11.50;6.93;;;12.90;94.80;;;;;;5002595;28;20219;-66
2021/09/07 03:30:23;;;;;;;10.90;6.93;;;12.90;94.90;;;;;;5003541;28;20208;-66
2021/09/07 03:32:50;;;;;;;12.90;7.20;;;12.90;94.90;;;;;;5001475;28;20207;-66
2021/09/07 03:35:17;;;;;;;10.90;6.47;;;12.90;95.00;;;;;;5009816;28;20214;-66
2021/09/07 03:37:44;;;;;;;9.80;6.50;;;12.80;95.00;;;;;;5010806;28;20227;-66
2021/09/07 03:40:12;;;;;;;11.70;6.80;;;12.90;95.40;;;;;;5011636;28;20214;-66
2021/09/07 03:42:40;;;;;;;8.20;6.50;;;12.80;95.10;;;;;;5012483;28;20620;-67
2021/09/07 03:45:11;;;;;;;9.23;6.60;;;12.90;95.20;;;;;;5012246;28;20211;-66
2021/09/07 03:47:38;;;;;;;9.97;6.50;;;12.80;95.10;;;;;;5011353;28;20203;-66
2021/09/07 03:50:06;;;;;;;12.00;6.90;;;12.80;95.20;;;;;;5012331;28;20214;-66
2021/09/07 03:52:33;;;;;;;10.23;6.67;;;12.80;95.40;;;;;;5006217;28;20573;-65
2021/09/07 03:54:59;;;;;;;10.80;6.73;;;12.80;95.40;;;;;;4995086;28;20216;-67
2021/09/07 03:57:26;;;;;;;10.90;7.27;;;12.80;95.60;;;;;;4997328;28;20216;-66
2021/09/07 03:59:56;;;;;;;11.47;7.13;;;12.70;95.50;;;;;;4992324;28;20216;-66
2021/09/07 04:02:23;;;;;;;10.33;6.93;;;12.70;95.60;;;;;;4991716;28;20705;-67
2021/09/07 04:04:50;;;;;;;9.57;7.40;;;12.70;95.70;;;;;;4995815;28;20559;-66
2021/09/07 04:07:17;;;;;;;10.03;6.67;;;12.70;95.90;;;;;;4998785;28;20226;-65
2021/09/07 04:09:43;;;;;;;9.87;6.63;;;12.70;96.00;;;;;;4991797;28;20231;-66
2021/09/07 04:12:11;;;;;;;10.73;7.03;;;12.70;96.20;;;;;;4993463;28;20592;-66
2021/09/07 04:14:38;;;;;;;11.93;7.30;;;12.60;96.20;;;;;;5005063;28;20732;-67
2021/09/07 04:17:06;;;;;;;10.70;6.63;;;12.60;96.30;;;;;;4998561;28;20207;-66
2021/09/07 04:19:33;;;;;;;13.00;7.73;;;12.70;96.40;;;;;;4998682;28;20291;-67
2021/09/07 04:22:00;;;;;;;10.70;7.47;;;12.70;96.50;;;;;;5003306;28;20207;-67
2021/09/07 04:24:27;;;;;;;11.50;6.83;;;12.70;96.60;;;;;;5001843;28;20212;-65
2021/09/07 04:26:54;;;;;;;13.87;9.07;;;12.70;96.60;;;;;;4996277;28;20214;-66
2021/09/07 04:29:21;;;;;;;12.97;8.87;;;12.70;96.60;;;;;;5007465;28;20585;-66
2021/09/07 04:31:48;;;;;;;11.53;8.03;;;12.70;96.60;;;;;;4992679;28;20223;-67
2021/09/07 04:34:16;;;;;;;14.57;7.53;;;12.70;96.70;;;;;;5000902;28;20226;-65
2021/09/07 04:36:43;;;;;;;9.63;6.77;;;12.70;96.80;;;;;;5004243;28;20323;-66
2021/09/07 04:39:09;;;;;;;11.97;6.70;;;12.80;96.80;;;;;;5014980;28;20207;-66
2021/09/07 04:41:36;;;;;;;10.97;7.00;;;12.80;96.80;;;;;;5015311;28;20247;-66
2021/09/07 04:44:03;;;;;;;10.13;7.03;;;12.80;96.80;;;;;;5015177;28;20208;-66
2021/09/07 04:46:30;;;;;;;12.73;7.40;;;12.80;96.80;;;;;;5014749;28;20206;-66
2021/09/07 04:48:57;;;;;;;14.30;7.27;;;12.80;96.90;;;;;;5014361;28;20254;-66
2021/09/07 04:51:26;;;;;;;10.87;6.80;;;12.80;96.90;;;;;;5014274;28;20208;-66
2021/09/07 04:53:53;;;;;;;10.97;6.33;;;12.90;97.00;;;;;;4998646;28;20596;-66
2021/09/07 04:56:20;;;;;;;11.90;7.30;;;12.90;97.00;;;;;;5013064;28;20207;-65
2021/09/07 04:58:47;;;;;;;14.77;7.63;;;12.90;97.00;;;;;;4998493;28;20211;-67
2021/09/07 05:01:14;;;;;;;11.30;7.03;;;12.90;97.00;;;;;;4998854;28;20215;-66
2021/09/07 05:03:40;;;;;;;12.00;7.10;;;12.90;96.90;;;;;;4998571;28;20557;-66
2021/09/07 05:06:07;;;;;;;11.43;7.23;;;12.90;96.90;;;;;;5015054;28;20695;-66
2021/09/07 05:08:35;;;;;;;11.10;7.57;;;13.00;96.90;;;;;;5001680;28;20235;-67
2021/09/07 05:11:02;;;;;;;12.33;7.83;;;13.00;97.10;;;;;;5013395;28;20214;-65
2021/09/07 05:13:29;;;;;;;13.20;7.07;;;13.00;97.10;;;;;;5014433;28;20207;-66
2021/09/07 05:15:56;;;;;;;11.40;6.50;;;13.20;97.10;;;;;;5001506;28;20297;-66
2021/09/07 05:18:23;;;;;;;12.83;6.57;;;13.30;97.00;;;;;;5000520;28;20200;-65
2021/09/07 05:20:50;;;;;;;11.33;6.57;;;13.40;96.90;;;;;;5005717;28;20222;-67
2021/09/07 05:23:17;;;;;;;10.07;6.30;;;13.40;96.80;;;;;;5006577;28;20744;-68
2021/09/07 05:25:45;;;;;;;10.50;5.67;;;13.50;96.60;;;;;;5014157;28;20575;-65
2021/09/07 05:28:12;;;;;;;9.90;6.37;;;13.60;96.50;;;;;;5005033;28;20557;-66
2021/09/07 05:30:38;;;;;;;9.63;5.83;;;13.60;96.40;;;;;;5003522;28;20215;-66
2021/09/07 05:33:06;;;;;;;13.20;6.23;;;13.70;96.30;;;;;;5009471;28;20239;-66
2021/09/07 05:35:32;;;;;;;11.07;6.50;;;13.80;96.00;;;;;;5005711;28;20222;-67
2021/09/07 05:37:59;;;;;;;10.10;5.90;;;13.80;96.00;;;;;;5006907;28;20304;-67
2021/09/07 05:40:26;;;;;;;9.20;6.10;;;14.00;95.90;;;;;;5006114;28;20561;-67
2021/09/07 05:42:54;;;;;;;11.20;6.40;;;14.10;95.80;;;;;;5009952;28;20218;-68
2021/09/07 05:45:21;;;;;;;11.27;6.90;;;14.20;95.60;;;;;;5010848;28;20215;-68
2021/09/07 05:47:48;;;;;;;10.67;6.60;;;14.30;95.30;;;;;;5010798;28;20568;-67
2021/09/07 05:50:15;;;;;;;10.43;6.80;;;14.40;95.20;;;;;;5010818;28;20227;-68
2021/09/07 05:52:42;;;;;;;13.17;6.53;;;14.50;95.00;;;;;;5007793;28;20207;-68
2021/09/07 05:55:11;;;;;;;13.73;7.17;;;14.50;94.80;;;;;;5009393;28;20226;-68
2021/09/07 05:57:38;;;;;;;12.43;6.57;;;14.60;94.70;;;;;;5011602;28;20211;-66
2021/09/07 06:00:09;;;;;;;13.80;8.67;;;14.60;94.50;;;;;;5008375;28;20203;-67
2021/09/07 06:02:36;;;;;;;14.47;7.07;;;14.60;94.40;;;;;;5009264;28;20294;-68
2021/09/07 06:05:03;;;;;;;10.97;6.90;;;14.70;94.60;;;;;;5008814;28;20231;-68
2021/09/07 06:07:30;;;;;;;12.17;7.27;;;14.60;94.30;;;;;;5009718;28;20203;-68
2021/09/07 06:09:57;;;;;;;12.30;6.57;;;14.70;94.30;;;;;;5011748;28;20230;-68
2021/09/07 06:12:24;;;;;;;11.77;6.57;;;14.80;94.40;;;;;;5007079;28;20207;-67
2021/09/07 06:14:51;;;;;;;11.93;6.97;;;14.80;94.40;;;;;;5009577;28;20203;-66
2021/09/07 06:17:19;;;;;;;10.00;7.30;;;14.80;94.40;;;;;;5011303;28;20203;-68
2021/09/07 06:19:46;;;;;;;13.47;6.60;;;14.90;94.40;;;;;;5004629;28;20215;-66
2021/09/07 06:22:13;;;;;;;11.77;6.93;;;14.90;94.40;;;;;;5016311;28;20200;-66
2021/09/07 06:24:39;;;;;;;17.87;6.83;;;15.00;94.30;;;;;;5012677;28;20635;-67
2021/09/07 06:27:06;;;;;;;10.07;6.63;;;15.10;94.20;;;;;;5010710;28;20679;-67
2021/09/07 06:29:33;;;;;;;11.50;6.47;;;15.20;94.20;;;;;;5006318;28;20227;-68
2021/09/07 06:32:00;;;;;;;10.53;6.50;;;15.30;94.10;;;;;;5004063;28;20213;-67
2021/09/07 06:34:28;;;;;;;12.50;6.13;;;15.40;93.80;;;;;;4998065;28;20203;-67
2021/09/07 06:36:56;;;;;;;12.43;7.00;;;15.50;93.60;;;;;;4999770;28;20230;-66
2021/09/07 06:39:24;;;;;;;13.53;6.70;;;15.50;93.40;;;;;;4999228;28;20216;-67
2021/09/07 06:41:53;;;;;;;13.00;6.63;;;15.60;93.30;;;;;;5007921;28;20581;-67
2021/09/07 06:44:20;;;;;;;16.60;6.50;;;15.60;93.10;;;;;;5004578;28;20226;-66
2021/09/07 06:46:47;;;;;;;13.57;6.30;;;15.70;93.00;;;;;;5012103;28;20218;-67
2021/09/07 06:49:14;;;;;;;10.20;6.60;;;15.70;92.80;;;;;;5012093;28;20234;-67
2021/09/07 06:51:42;;;;;;;9.93;6.20;;;15.70;92.50;;;;;;5009304;28;20207;-68
2021/09/07 06:54:09;;;;;;;11.30;6.23;;;15.80;92.30;;;;;;5006766;28;20211;-66
2021/09/07 06:56:36;;;;;;;12.80;5.77;;;15.90;92.20;;;;;;5006387;28;20581;-69
2021/09/07 06:59:02;;;;;;;8.57;5.80;;;16.00;92.10;;;;;;5002257;28;20287;-68
2021/09/07 07:01:29;;;;;;;12.53;6.03;;;16.10;92.00;;;;;;5001582;28;20226;-66
2021/09/07 07:03:56;;;;;;;15.23;6.53;;;16.30;91.80;;;;;;5007797;28;20211;-68
2021/09/07 07:06:23;;;;;;;9.93;6.50;;;16.30;91.60;;;;;;5007170;28;20234;-67
2021/09/07 07:08:51;;;;;;;13.77;6.13;;;16.40;91.20;;;;;;4997207;28;20230;-66
2021/09/07 07:11:17;;;;;;;11.33;6.10;;;16.50;91.00;;;;;;4999343;28;20210;-67
2021/09/07 07:13:44;;;;;;;10.80;5.60;;;16.60;90.60;;;;;;5011855;28;20207;-67
2021/09/07 07:16:11;;;;;;;8.90;5.30;;;16.80;90.30;;;;;;5006716;28;20207;-67
2021/09/07 07:18:38;;;;;;;9.47;6.00;;;16.90;90.00;;;;;;5000927;28;20211;-67
2021/09/07 07:21:05;;;;;;;10.60;5.17;;;17.00;89.80;;;;;;5007291;28;20217;-67
2021/09/07 07:23:32;;;;;;;11.17;5.30;;;17.20;89.10;;;;;;5003251;28;20567;-67
2021/09/07 07:26:00;;;;;;;8.70;5.10;;;17.30;87.60;;;;;;5009593;28;20211;-67
2021/09/07 07:28:27;;;;;;;10.77;5.57;;;17.40;86.90;;;;;;4997603;28;20222;-67
2021/09/07 07:30:53;;;;;;;12.10;5.73;;;17.50;86.50;;;;;;4998920;28;20559;-67
2021/09/07 07:33:20;;;;;;;9.20;5.50;;;17.60;86.20;;;;;;5006736;28;20667;-67
2021/09/07 07:35:47;;;;;;;9.63;5.57;;;17.80;86.00;;;;;;5005604;28;20819;-67
2021/09/07 07:38:14;;;;;;;12.70;5.60;;;17.90;85.50;;;;;;4994192;28;20211;-66
2021/09/07 07:40:40;;;;;;;11.27;5.03;;;18.10;85.00;;;;;;4995228;28;20200;-66
2021/09/07 07:43:09;;;;;;;11.63;5.23;;;18.20;84.30;;;;;;5011941;28;20249;-67
2021/09/07 07:45:35;;;;;;;9.57;5.43;;;18.40;83.70;;;;;;5014261;28;20552;-66
2021/09/07 07:48:02;;;;;;;8.35;5.15;;;18.60;83.80;;;;;;4998689;28;20916;-67
2021/09/07 07:50:31;;;;;;;8.85;5.22;;;18.80;83.40;;;;;;5008528;28;20239;-67
2021/09/07 07:53:02;;;;;;;10.15;5.40;;;18.90;82.70;;;;;;5009255;28;20238;-68
2021/09/07 07:55:29;;;;;;;5.80;4.70;;;19.00;81.90;;;;;;5002005;28;20297;-67
2021/09/07 07:57:55;;;;;;;7.37;4.90;;;19.10;80.90;;;;;;5010704;28;20215;-68
2021/09/07 08:00:25;;;;;;;9.03;5.17;;;19.20;80.00;;;;;;5009838;28;20222;-68
2021/09/07 08:02:52;;;;;;;10.07;4.32;;;19.40;79.50;;;;;;5011425;28;20207;-67
2021/09/07 08:05:18;;;;;;;8.20;4.60;;;19.50;79.10;;;;;;5010674;28;20238;-67
2021/09/07 08:07:46;;;;;;;9.45;4.32;;;19.60;79.00;;;;;;5010686;28;20210;-68
2021/09/07 08:10:13;;;;;;;6.38;4.25;;;19.70;77.90;;;;;;5011665;28;20235;-67
2021/09/07 08:12:41;;;;;;;7.47;4.45;;;19.80;77.80;;;;;;5015630;28;20215;-67
2021/09/07 08:15:08;;;;;;;6.78;4.72;;;20.00;77.00;;;;;;5006948;28;20234;-68
2021/09/07 08:17:36;;;;;;;7.90;4.65;;;20.10;76.40;;;;;;5014631;28;20207;-67
2021/09/07 08:20:03;;;;;;;6.55;3.92;;;20.30;75.70;;;;;;5014043;28;20211;-67
2021/09/07 08:22:30;;;;;;;8.43;4.57;;;20.40;74.90;;;;;;5011246;28;20687;-68
2021/09/07 08:24:57;;;;;;;7.28;4.40;;;20.50;74.30;;;;;;5009453;28;20218;-68
2021/09/07 08:27:24;;;;;;;9.68;4.50;;;20.70;73.60;;;;;;5009283;28;20330;-67
2021/09/07 08:29:51;;;;;;;7.70;4.25;;;20.80;73.20;;;;;;5005442;28;20216;-67
2021/09/07 08:32:18;;;;;;;8.90;5.03;;;20.90;73.00;;;;;;5012373;28;20218;-68
2021/09/07 08:34:46;;;;;;;15.35;4.65;;;21.00;72.50;;;;;;5014684;28;20200;-67
2021/09/07 08:37:13;;;;;;;9.35;4.68;;;21.10;72.10;;;;;;5014893;28;20231;-68
2021/09/07 08:39:40;;;;;;;10.25;4.07;;;21.30;72.20;;;;;;5014310;28;20413;-68
2021/09/07 08:42:11;;;;;;;7.00;3.88;;;21.50;71.20;;;;;;5013580;28;20586;-67
2021/09/07 08:44:38;;;;;;;6.18;4.50;;;21.70;70.40;;;;;;5015123;28;20207;-66
2021/09/07 08:47:05;;;;;;;6.32;4.13;;;21.70;69.70;;;;;;5014302;28;20203;-67
2021/09/07 08:49:31;;;;;;;5.05;3.65;;;21.80;69.20;;;;;;5013529;28;20233;-67
2021/09/07 08:52:00;;;;;;;9.25;3.90;;;21.90;67.80;;;;;;5013016;28;20214;-66
2021/09/07 08:54:26;;;;;;;6.28;3.70;;;22.00;66.90;;;;;;4998254;28;20322;-67
2021/09/07 08:56:53;;;;;;;6.10;3.75;;;22.30;66.60;;;;;;5008924;28;20645;-68
2021/09/07 08:59:20;;;;;;;5.38;3.50;;;22.40;65.70;;;;;;4999974;28;20664;-68
2021/09/07 09:01:52;;;;;;;4.78;2.78;;;22.40;64.60;;;;;;5013246;28;20207;-68
2021/09/07 09:04:26;;;;;;;7.38;5.05;;;22.40;64.20;;;;;;5009591;28;20204;-67
2021/09/07 09:06:53;;;;;;;5.45;3.80;;;22.60;64.20;;;;;;5009475;28;20251;-68
2021/09/07 09:09:21;;;;;;;5.28;3.60;;;22.80;64.10;;;;;;5002840;28;20211;-68
2021/09/07 09:11:53;;;;;;;6.15;3.50;;;22.90;63.30;;;;;;5004844;28;20212;-67
2021/09/07 09:14:34;;;;;;;4.65;3.10;;;23.30;64.50;;;;;;5011812;28;20207;-68
2021/09/07 09:17:01;;;;;;;8.35;3.67;;;23.90;62.20;;;;;;5010389;28;20214;-69
2021/09/07 09:19:28;;;;;;;4.68;3.10;;;24.60;60.30;;;;;;5012212;28;20218;-68
2021/09/07 09:21:55;;;;;;;4.93;3.88;;;24.90;58.80;;;;;;5012483;28;20242;-66
2021/09/07 09:24:24;;;;;;;4.85;3.00;;;25.30;58.10;;;;;;5011313;28;20214;-68
2021/09/07 09:26:56;;;;;;;10.98;3.80;;;25.50;57.50;;;;;;5013718;28;20600;-69
2021/09/07 09:29:24;;;;;;;4.10;2.83;;;25.60;56.70;;;;;;5006545;28;20199;-67
2021/09/07 09:31:56;;;;;;;4.60;2.88;;;25.60;55.40;;;;;;5011288;28;20203;-68
2021/09/07 09:34:23;;;;;;;4.38;2.58;;;25.40;56.40;;;;;;5013342;28;20538;-68
2021/09/07 09:37:01;;;;;;;7.72;4.90;;;25.60;56.70;;;;;;5012941;28;20707;-68
2021/09/07 09:39:41;;;;;;;6.38;3.40;;;26.00;55.40;;;;;;5016014;28;20285;-67
2021/09/07 09:42:09;;;;;;;7.07;2.70;;;26.30;54.90;;;;;;5008509;28;20712;-67
2021/09/07 09:44:36;;;;;;;4.22;2.55;;;26.40;54.10;;;;;;5010316;28;20203;-66
2021/09/07 09:47:03;;;;;;;7.53;2.70;;;26.40;54.00;;;;;;5011126;28;20203;-68
2021/09/07 09:49:31;;;;;;;5.57;3.30;;;26.30;52.90;;;;;;5012627;28;20211;-68
2021/09/07 09:52:03;;;;;;;6.40;3.08;;;26.10;53.30;;;;;;5012427;28;20203;-67
2021/09/07 09:54:31;;;;;;;5.07;3.05;;;26.00;54.20;;;;;;5013003;28;20207;-69
2021/09/07 09:57:01;;;;;;;5.72;3.45;;;26.10;53.60;;;;;;4999966;28;20539;-67
2021/09/07 09:59:28;;;;;;;5.57;3.10;;;26.20;54.40;;;;;;4997794;28;20221;-68
2021/09/07 10:01:57;;;;;;;4.72;2.90;;;26.30;53.70;;;;;;5000368;28;20748;-68
2021/09/07 10:04:25;;;;;;;4.43;2.78;;;26.30;53.70;;;;;;5000885;28;20623;-68
2021/09/07 10:06:52;;;;;;;5.25;2.92;;;26.30;53.70;;;;;;4999857;28;20251;-68
2021/09/07 10:09:22;;;;;;;5.43;3.00;;;26.30;53.80;;;;;;4997344;28;20644;-68
2021/09/07 10:11:52;;;;;;;3.47;2.88;;;26.50;53.20;;;;;;4998096;28;20553;-67
2021/09/07 10:14:26;;;;;;;6.60;3.25;;;26.50;52.70;;;;;;5001381;28;20226;-67
2021/09/07 10:17:23;;;;;;;4.53;3.03;;;26.40;53.10;;;;;;5008767;28;20199;-68
2021/09/07 10:19:58;;;;;;;3.53;2.28;;;26.50;52.30;;;;;;5010949;28;20199;-67
2021/09/07 10:25:50;;;;;;;3.30;2.50;;;26.70;51.90;;;;;;5000043;28;20568;-67
2021/09/07 10:28:37;;;;;;;3.83;2.60;;;26.70;51.80;;;;;;5009357;28;20569;-68
2021/09/07 10:31:08;;;;;;;4.53;3.05;;;26.60;51.70;;;;;;5010684;28;20216;-67
2021/09/07 10:33:37;;;;;;;6.55;2.80;;;26.60;51.80;;;;;;5011248;28;20203;-67
2021/09/07 10:36:18;;;;;;;4.90;3.10;;;26.70;52.10;;;;;;5010889;28;20227;-67
2021/09/07 10:38:47;;;;;;;6.63;3.40;;;26.80;52.60;;;;;;5011352;28;20211;-67
2021/09/07 10:41:44;;;;;;;5.85;2.65;;;27.00;51.40;;;;;;5010073;28;20660;-67
2021/09/07 10:44:11;;;;;;;5.85;3.40;;;27.10;51.30;;;;;;5010730;28;20731;-68
2021/09/07 10:46:44;;;;;;;13.80;3.35;;;27.20;51.40;;;;;;5011186;28;20217;-68
2021/09/07 10:49:18;;;;;;;4.45;3.00;;;27.30;50.90;;;;;;5007879;28;20207;-67
2021/09/07 10:52:20;;;;;;;4.18;2.65;;;27.40;50.50;;;;;;5011164;28;20211;-68
2021/09/07 10:54:54;;;;;;;10.07;3.13;;;27.60;50.40;;;;;;4950000;29;20208;-68
2021/09/07 10:57:53;;;;;;;4.53;2.13;;;27.60;49.50;;;;;;4948441;29;20200;-67
2021/09/07 11:00:40;;;;;;;3.72;2.38;;;27.20;49.60;;;;;;4935564;28;20581;-68
2021/09/07 11:03:15;;;;;;;4.82;2.83;;;26.80;49.90;;;;;;4993291;28;20223;-67
2021/09/07 11:05:47;;;;;;;4.05;2.53;;;26.70;51.00;;;;;;5010520;28;20621;-68
2021/09/07 11:08:16;;;;;;;4.40;2.63;;;26.80;50.70;;;;;;5012274;28;20199;-69
2021/09/07 11:10:45;;;;;;;2.88;2.58;;;26.70;50.50;;;;;;5011441;28;20337;-69
2021/09/07 11:13:20;;;;;;;3.38;2.70;;;26.70;51.00;;;;;;5000837;28;20213;-68
2021/09/07 11:15:47;;;;;;;4.50;2.50;;;26.90;51.20;;;;;;5012010;28;20272;-66
2021/09/07 11:18:17;;;;;;;5.43;3.10;;;27.10;50.70;;;;;;5011639;28;20207;-67
2021/09/07 11:20:47;;;;;;;3.70;2.72;;;27.20;50.70;;;;;;5011357;28;20199;-67
2021/09/07 11:23:16;;;;;;;5.13;2.60;;;27.10;49.90;;;;;;5007417;28;20683;-66
2021/09/07 11:25:45;;;;;;;5.35;2.67;;;27.10;50.30;;;;;;5011346;28;20219;-67
2021/09/07 11:28:14;;;;;;;3.33;2.70;;;27.30;50.20;;;;;;5010124;28;20711;-67
2021/09/07 11:30:42;;;;;;;5.10;2.80;;;27.70;49.80;;;;;;5011611;28;20750;-67
2021/09/07 11:33:11;;;;;;;7.63;2.63;;;28.10;48.80;;;;;;5011088;28;20212;-68
2021/09/07 11:35:42;;;;;;;7.50;2.88;;;28.10;48.50;;;;;;5011320;28;20267;-69
2021/09/07 11:38:11;;;;;;;4.97;2.50;;;27.90;48.30;;;;;;5011174;28;20290;-67
2021/09/07 11:40:46;;;;;;;5.40;2.92;;;27.70;48.40;;;;;;5008393;28;20578;-68
2021/09/07 11:43:14;;;;;;;4.32;2.50;;;27.40;48.80;;;;;;5011644;28;20202;-67
2021/09/07 11:45:41;;;;;;;3.30;2.70;;;27.10;49.20;;;;;;5011477;28;20648;-67
2021/09/07 11:48:10;;;;;;;3.47;2.67;;;26.90;49.50;;;;;;5008650;28;20199;-68
2021/09/07 11:50:40;;;;;;;4.78;3.17;;;26.90;49.70;;;;;;5011637;28;20640;-67
2021/09/07 11:53:09;;;;;;;7.07;3.15;;;26.70;50.20;;;;;;5011279;28;20242;-68
2021/09/07 11:55:52;;;;;;;5.53;3.10;;;26.70;50.10;;;;;;5011813;28;20207;-66
2021/09/07 11:58:36;;;;;;;5.32;3.15;;;26.70;50.00;;;;;;5000025;28;20853;-67
2021/09/07 12:01:12;;;;;;;4.82;2.92;;;26.60;50.30;;;;;;4992195;28;20685;-67
2021/09/07 12:03:42;;;;;;;3.33;2.72;;;26.70;50.60;;;;;;4995465;28;20204;-68
2021/09/07 12:06:12;;;;;;;5.57;2.20;;;26.70;50.60;;;;;;5005333;28;20602;-66
2021/09/07 12:08:42;;;;;;;2.80;2.30;;;26.70;50.20;;;;;;4993038;28;20242;-68
2021/09/07 12:11:13;;;;;;;3.15;2.28;;;26.70;50.20;;;;;;4991753;28;20231;-67
2021/09/07 12:13:40;;;;;;;3.15;2.45;;;27.40;50.60;;;;;;5008999;28;20618;-67
2021/09/07 12:16:07;;;;;;;4.93;2.38;;;26.60;49.80;;;;;;4992830;28;20208;-67
2021/09/07 12:18:37;;;;;;;4.07;2.15;;;26.70;49.70;;;;;;4991100;28;20208;-66
2021/09/07 12:21:15;;;;;;;4.57;2.72;;;26.70;49.80;;;;;;4992160;28;20204;-67
2021/09/07 12:23:43;;;;;;;4.82;2.83;;;26.80;49.40;;;;;;5007823;28;20207;-66
2021/09/07 12:26:10;;;;;;;3.03;2.47;;;26.80;49.60;;;;;;4994059;28;20211;-67
2021/09/07 12:28:40;;;;;;;3.17;2.47;;;26.90;49.40;;;;;;4998455;28;20214;-67
2021/09/07 12:31:18;;;;;;;4.20;2.50;;;26.90;49.10;;;;;;4995705;28;20595;-68
2021/09/07 12:33:48;;;;;;;4.43;2.42;;;27.00;49.10;;;;;;5006637;28;20225;-67
2021/09/07 12:36:19;;;;;;;4.63;2.40;;;27.10;49.10;;;;;;5010862;28;20282;-66
2021/09/07 12:38:46;;;;;;;4.53;2.80;;;26.90;48.80;;;;;;5010550;28;20290;-65
2021/09/07 12:41:15;;;;;;;4.55;2.30;;;26.70;49.30;;;;;;5010493;28;20222;-66
2021/09/07 12:43:46;;;;;;;3.35;2.50;;;26.80;49.80;;;;;;5010167;28;20207;-67
2021/09/07 12:46:14;;;;;;;4.80;3.00;;;27.00;49.60;;;;;;5011185;28;20303;-66
2021/09/07 12:48:44;;;;;;;3.55;2.50;;;27.30;49.20;;;;;;5010785;28;20221;-68
2021/09/07 12:51:13;;;;;;;3.90;2.60;;;27.40;48.80;;;;;;5010671;28;20227;-67